Airport ID:1G3
Update Time (UTC):01/12/2022 14:23
Wind Speed (Knots):10
Wind Direction (Magnetic):260
Temperature (°C):-3
Dew Point (°C):-8
Humidity (%):70
Altimeter (inHg):30.45
Density Altitude (Feet):
Visibility:10+
Clouds (Hundreds of feet):***
Present Weather:
METAR:METAR 1G3 011420Z AUTO 24008G16KT 10SM M03/M08 A3045 RMK A01

The data displayed is for advisory purposes only and is not to be used for flight planning or operations.